首页
METAR-TAF:

METAR-TAF

机场 :

Kerteh, 马来西亚

纬度: 04-32-15N, 经度: 103-25-36E, 海拔: 5米

当前天气观测

该预报发布于49分钟前的02:00 UTC
静风
温度 26°C
湿度 89%
气压 1014 hPa
能见度10公里或以上
少量云层高于1500英尺
多云层高于26000英尺

METAR: WMKE 170200Z 00000KT 9999 FEW015 BKN260 26/24 Q1014

时间: 10:49 (02:49 UTC)

预报

该预报发布于3小时和49分钟前的23:00 UTC
预报有效从17日的 00点(UTC)到 18日的 00点(UTC)
风速8节,风向东北
能见度10公里或以上
少量云层高于1500英尺

TAF: WMKE 162300Z 1700/1800 04008KT 9999 FEW015 BN260

超过4000个机场的气象观测和天气预报(METAR&TAF报告)。

可查询的气象台以黄色和红色小点在地图上表示。

将鼠标移到小点上方,可查看气象台名称。

然后点击查看天气观测和预报。

如需切换地图:点击带黑十字的绿色按钮放大地图;点击带横线的绿色按钮缩小地图;或者点击绿色箭头查看邻近地区的地图。


METAR-TAF: